Time;durP1;ratioP1;P1;durP2;ratioP2;P2;SDS_P1;SDS_P2;PMS_P1;PMS_P2;Temp;Humidity;BMP_temperature;BMP_pressure;BME280_temperature;BME280_humidity;BME280_pressure;Samples;Min_cycle;Max_cycle;Signal;HPM_P1;HPM_P2
2022/01/25 00:09:21;;;;;;;39.70;20.52;;;;;;;4.20;82.89;101871.69;4976142;28;20037;-74
2022/01/25 00:28:42;;;;;;;36.47;18.30;;;;;;;4.20;83.40;101849.13;4953422;28;20039;-74
2022/01/25 00:31:13;;;;;;;39.42;20.10;;;;;;;4.26;83.36;101854.00;5001084;28;20043;-73
2022/01/25 00:33:43;;;;;;;44.83;20.13;;;;;;;4.25;83.50;101854.38;4989932;28;20054;-73
2022/01/25 00:36:16;;;;;;;41.00;20.13;;;;;;;4.23;83.39;101842.72;4957915;28;20042;-73
2022/01/25 00:38:44;;;;;;;43.00;19.70;;;;;;;4.27;83.56;101835.88;4974010;28;20388;-74
2022/01/25 00:41:10;;;;;;;42.05;21.20;;;;;;;4.29;83.88;101841.91;4974162;28;20074;-74
2022/01/25 00:43:35;;;;;;;44.88;21.05;;;;;;;4.32;82.91;101845.97;4973983;28;20113;-74
2022/01/25 00:46:16;;;;;;;45.72;20.13;;;;;;;4.39;83.19;101836.72;4973967;28;20026;-73
2022/01/25 00:48:46;;;;;;;;;;;;;;;4.33;82.90;101847.59;4974690;28;20105;-72
2022/01/25 00:56:26;;;;;;;51.08;19.33;;;;;;;4.39;82.97;101834.69;4973826;28;20118;-72
2022/01/25 00:58:53;;;;;;;;;;;;;;;4.28;83.41;101845.97;4974248;28;20034;-72
2022/01/25 01:01:19;;;;;;;40.10;17.73;;;;;;;4.25;83.09;101838.28;4973682;28;20355;-73
2022/01/25 01:03:46;;;;;;;34.58;19.55;;;;;;;4.33;83.78;101839.13;4973576;28;20045;-75
2022/01/25 01:06:11;;;;;;;40.22;18.83;;;;;;;4.31;83.69;101828.22;4973657;28;20050;-72
2022/01/25 01:08:37;;;;;;;36.70;18.10;;;;;;;4.35;83.83;101829.03;4989915;28;20061;-74
2022/01/25 01:11:07;;;;;;;39.70;19.65;;;;;;;4.40;83.67;101827.03;4973389;28;20041;-74
2022/01/25 01:43:36;;;;;;;36.08;18.55;;;;;;;4.60;82.91;101806.53;4974468;28;20133;-73
2022/01/25 01:48:55;;;;;;;35.75;19.38;;;;;;;4.65;82.50;101811.78;4988880;28;20039;-74
2022/01/25 01:51:42;;;;;;;38.30;19.10;;;;;;;4.54;82.79;101799.66;4972962;28;20046;-73
2022/01/25 01:54:13;;;;;;;36.22;18.48;;;;;;;4.62;82.79;101803.31;4973135;28;20392;-73
2022/01/25 01:56:39;;;;;;;34.25;18.58;;;;;;;4.57;82.65;101789.59;4971691;28;20038;-73
2022/01/25 01:59:10;;;;;;;37.55;20.05;;;;;;;4.67;82.41;101797.25;4988185;28;20305;-73
2022/01/25 02:01:41;;;;;;;36.45;19.00;;;;;;;4.68;82.41;101799.69;4972342;28;20031;-73
2022/01/25 02:04:08;;;;;;;36.03;19.33;;;;;;;4.69;82.53;101797.66;4972032;28;20166;-74
2022/01/25 02:06:35;;;;;;;36.55;19.13;;;;;;;4.70;82.77;101790.81;4973280;28;20046;-74
2022/01/25 02:09:02;;;;;;;33.83;17.65;;;;;;;4.68;83.00;101788.41;4972693;28;20043;-73
2022/01/25 02:11:29;;;;;;;39.85;19.60;;;;;;;4.70;82.69;101793.63;4973137;28;20033;-73
2022/01/25 02:13:55;;;;;;;37.75;19.02;;;;;;;4.70;82.31;101788.78;4989304;28;20035;-72
2022/01/25 02:24:38;;;;;;;39.75;19.83;;;;;;;4.64;82.83;101759.34;4973292;28;20093;-73
2022/01/25 02:27:06;;;;;;;36.60;18.63;;;;;;;4.63;82.45;101763.41;4991095;28;20038;-73
2022/01/25 02:29:32;;;;;;;34.85;18.13;;;;;;;4.60;82.22;101749.28;4992672;28;20052;-74
2022/01/25 02:31:58;;;;;;;42.97;19.77;;;;;;;4.56;82.73;101756.94;4976414;28;20388;-73
2022/01/25 02:34:25;;;;;;;45.65;20.98;;;;;;;4.48;83.23;101758.16;4975965;28;20131;-73
2022/01/25 02:37:01;;;;;;;42.83;20.42;;;;;;;4.51;83.40;101758.16;4992554;28;20113;-75
2022/01/25 02:39:27;;;;;;;38.60;20.35;;;;;;;4.57;83.06;101758.56;4976181;28;20031;-73
2022/01/25 02:41:54;;;;;;;36.90;19.38;;;;;;;4.58;82.82;101760.19;4992401;28;20446;-74
2022/01/25 02:44:26;;;;;;;40.78;21.02;;;;;;;4.53;83.02;101758.56;4976129;28;20117;-75
2022/01/25 02:49:17;;;;;;;39.30;18.50;;;;;;;4.52;83.26;101756.94;5008621;28;20025;-76
2022/01/25 02:51:46;;;;;;;32.83;18.10;;;;;;;4.51;83.52;101748.88;4976116;28;20062;-74
2022/01/25 02:54:27;;;;;;;34.65;19.13;;;;;;;4.49;83.07;101737.22;4977009;28;20030;-74
2022/01/25 02:56:54;;;;;;;38.55;20.13;;;;;;;4.53;83.42;101736.00;4959793;28;20019;-74
2022/01/25 02:59:21;;;;;;;37.85;19.88;;;;;;;4.56;83.11;101740.81;4992043;28;20035;-75
2022/01/25 03:01:55;;;;;;;43.15;19.13;;;;;;;4.64;82.53;101738.78;4975945;28;20117;-74
2022/01/25 03:04:23;;;;;;;42.28;20.58;;;;;;;4.61;82.90;101737.59;4959542;28;20385;-73
2022/01/25 03:06:50;;;;;;;33.85;17.70;;;;;;;4.57;83.91;101742.44;4976071;28;20444;-74
2022/01/25 03:09:16;;;;;;;38.15;18.05;;;;;;;4.53;83.39;101729.53;4959693;28;20361;-74
2022/01/25 03:11:49;;;;;;;32.00;17.50;;;;;;;4.60;83.17;101730.34;4977111;28;20067;-74
2022/01/25 03:14:18;;;;;;;35.88;17.73;;;;;;;4.53;83.63;101738.81;4975714;28;20027;-73
2022/01/25 03:16:48;;;;;;;36.90;17.98;;;;;;;4.53;83.68;101738.00;4976742;28;20027;-74
2022/01/25 03:22:07;;;;;;;35.33;16.90;;;;;;;4.54;83.60;101742.44;4975934;28;20476;-74
2022/01/25 03:24:33;;;;;;;35.90;18.58;;;;;;;4.52;83.77;101739.22;4991478;28;20023;-72
2022/01/25 03:27:01;;;;;;;38.88;18.45;;;;;;;4.41;84.46;101727.91;4975292;28;20053;-74
2022/01/25 03:29:27;;;;;;;34.13;18.13;;;;;;;4.49;84.25;101728.75;4976495;28;20472;-74
2022/01/25 03:31:53;;;;;;;37.40;18.05;;;;;;;4.54;84.17;101739.63;4976982;28;20092;-74
2022/01/25 03:34:18;;;;;;;33.50;16.50;;;;;;;4.55;84.39;101733.56;4976234;28;20488;-73
2022/01/25 03:36:44;;;;;;;32.85;16.33;;;;;;;4.55;84.42;101736.38;4991659;28;20027;-73
2022/01/25 03:39:10;;;;;;;33.47;17.40;;;;;;;4.54;84.92;101736.81;4990677;28;20227;-75
2022/01/25 03:41:35;;;;;;;34.63;17.15;;;;;;;4.56;84.39;101735.19;4991437;28;20519;-73
2022/01/25 03:44:09;;;;;;;31.17;16.92;;;;;;;4.53;84.24;101723.91;4991195;28;20033;-74
2022/01/25 03:51:50;;;;;;;30.17;15.55;;;;;;;4.60;85.27;101726.72;4975257;28;20172;-74
2022/01/25 03:54:17;;;;;;;32.53;15.48;;;;;;;4.60;85.08;101727.53;4974765;28;20077;-73
2022/01/25 03:56:44;;;;;;;33.80;16.52;;;;;;;4.58;84.18;101729.16;4990875;28;20113;-75
2022/01/25 03:59:10;;;;;;;30.73;16.23;;;;;;;4.58;84.29;101718.66;4974823;28;20030;-74
2022/01/25 04:01:37;;;;;;;30.25;16.67;;;;;;;4.52;83.79;101705.34;4976389;28;20035;-74
2022/01/25 04:04:08;;;;;;;42.38;17.65;;;;;;;4.56;84.54;101728.72;4974829;28;20031;-74
2022/01/25 04:06:36;;;;;;;33.05;16.58;;;;;;;4.54;84.59;101714.25;4974700;28;20091;-74
2022/01/25 04:09:05;;;;;;;32.88;16.60;;;;;;;4.54;84.85;101714.25;4974421;28;20129;-74
2022/01/25 04:11:30;;;;;;;35.20;16.92;;;;;;;4.56;84.23;101721.06;4990834;28;20495;-74
2022/01/25 04:13:57;;;;;;;32.55;16.65;;;;;;;4.56;84.66;101729.53;4990591;28;20022;-74
2022/01/25 04:17:21;;;;;;;35.00;18.02;;;;;;;4.58;84.83;101727.13;4990271;28;20035;-74
2022/01/25 04:25:07;;;;;;;37.42;18.45;;;;;;;4.65;84.39;101726.31;4975354;28;20023;-74
2022/01/25 04:27:33;;;;;;;33.95;18.65;;;;;;;4.67;83.76;101716.25;4987780;28;20507;-75
2022/01/25 04:30:00;;;;;;;40.92;18.92;;;;;;;4.67;84.04;101716.25;4973935;28;20502;-75
2022/01/25 04:33:03;;;;;;;39.67;19.33;;;;;;;4.67;83.82;101718.25;4957941;28;20029;-74
2022/01/25 04:49:20;;;;;;;39.67;18.88;;;;;;;4.61;83.50;101708.56;4975200;28;20045;-74
2022/01/25 04:57:20;;;;;;;37.72;17.13;;;;;;;4.69;83.73;101693.25;4974983;28;20121;-75
2022/01/25 04:59:57;;;;;;;35.05;16.55;;;;;;;4.64;83.40;101702.94;4985696;28;20357;-73
2022/01/25 05:04:59;;;;;;;39.90;16.58;;;;;;;4.69;83.96;101693.25;4975245;28;20058;-74
2022/01/25 05:09:53;;;;;;;35.67;18.70;;;;;;;4.65;83.77;101706.56;4990605;28;20483;-74
2022/01/25 05:18:41;;;;;;;38.25;18.55;;;;;;;4.67;83.87;101690.03;4974202;28;20050;-74
2022/01/25 05:23:29;;;;;;;41.25;19.73;;;;;;;4.64;84.13;101702.13;4955789;29;20046;-73
2022/01/25 05:25:59;;;;;;;43.10;19.10;;;;;;;4.67;84.56;101712.63;4970292;28;20027;-75
2022/01/25 05:28:24;;;;;;;42.33;19.73;;;;;;;4.68;84.16;101715.03;4970196;28;20045;-74
2022/01/25 05:30:51;;;;;;;37.72;18.48;;;;;;;4.73;84.21;101727.94;4976224;28;20027;-75
2022/01/25 05:33:17;;;;;;;40.65;19.40;;;;;;;4.77;84.69;101723.09;4974229;28;20500;-74
2022/01/25 05:35:45;;;;;;;38.40;17.02;;;;;;;4.83;84.69;101715.84;4957168;28;20045;-74
2022/01/25 05:38:10;;;;;;;37.65;19.95;;;;;;;4.75;84.86;101697.28;4989661;28;20062;-74
2022/01/25 05:40:48;;;;;;;38.45;18.73;;;;;;;4.79;84.05;101689.59;4973135;28;20065;-73
2022/01/25 05:48:23;;;;;;;38.67;18.08;;;;;;;4.85;84.16;101685.16;4974726;28;20070;-74
2022/01/25 05:50:57;;;;;;;38.80;18.95;;;;;;;4.17;83.73;101577.25;4956932;28;20370;-74
2022/01/25 05:53:37;;;;;;;38.30;19.77;;;;;;;4.82;83.65;101673.88;4956907;28;20380;-74
2022/01/25 05:56:04;;;;;;;41.78;18.88;;;;;;;4.81;84.19;101681.56;4956706;28;20113;-74
2022/01/25 05:58:30;;;;;;;36.95;18.10;;;;;;;4.83;84.00;101675.50;4989047;28;20071;-72
2022/01/25 06:00:57;;;;;;;38.50;18.40;;;;;;;4.83;84.25;101669.88;4973093;28;20497;-74
2022/01/25 06:03:26;;;;;;;34.70;18.30;;;;;;;4.77;83.93;101653.34;4977033;28;20066;-74
2022/01/25 06:05:51;;;;;;;37.47;19.77;;;;;;;4.70;83.90;101656.16;4977763;28;20468;-74
2022/01/25 06:08:18;;;;;;;35.75;17.83;;;;;;;4.74;84.30;101670.25;4977011;28;20035;-73
2022/01/25 06:10:45;;;;;;;38.08;18.55;;;;;;;4.76;84.01;101687.59;4992623;28;20086;-74
2022/01/25 06:13:10;;;;;;;47.92;21.73;;;;;;;4.76;84.17;101687.59;4979060;28;20035;-74
2022/01/25 06:15:36;;;;;;;44.33;20.95;;;;;;;4.76;84.41;101674.31;4977733;28;20366;-73
2022/01/25 06:18:03;;;;;;;47.20;20.95;;;;;;;4.79;85.33;101672.66;4976549;28;20084;-76
2022/01/25 06:20:29;;;;;;;40.15;18.77;;;;;;;4.82;84.85;101669.06;4955411;28;20035;-77
2022/01/25 06:22:56;;;;;;;41.92;20.05;;;;;;;4.84;85.30;101675.06;4956414;28;20062;-77
2022/01/25 06:25:21;;;;;;;43.80;19.65;;;;;;;4.79;85.06;101659.38;4975022;28;20038;-77
2022/01/25 06:27:47;;;;;;;38.75;20.02;;;;;;;4.74;85.72;101650.50;4976512;28;20031;-78
2022/01/25 06:30:14;;;;;;;55.05;21.55;;;;;;;4.79;86.69;101653.72;4975104;28;20035;-80
2022/01/25 06:32:40;;;;;;;43.05;20.45;;;;;;;4.74;87.21;101644.84;4980901;28;20038;-84
2022/01/25 06:35:07;;;;;;;46.05;21.20;;;;;;;4.85;87.37;101656.94;4980169;28;20030;-83
2022/01/25 06:37:33;;;;;;;46.33;20.35;;;;;;;4.91;86.52;101672.25;4960919;28;20380;-84
2022/01/25 06:39:59;;;;;;;46.10;21.17;;;;;;;4.73;87.70;101638.44;4960240;28;20035;-79
2022/01/25 06:42:31;;;;;;;43.20;20.58;;;;;;;4.90;87.86;101669.81;4975623;28;20039;-74
2022/01/25 06:45:01;;;;;;;;;;;;;;;4.89;88.37;101663.38;4976655;28;20026;-78
2022/01/25 06:47:26;;;;;;;37.78;18.67;;;;;;;4.88;87.87;101658.97;4977047;28;20060;-78
2022/01/25 06:49:52;;;;;;;40.13;19.13;;;;;;;4.87;88.42;101659.38;5001378;22;20220;-79
2022/01/25 06:52:18;;;;;;;37.92;17.70;;;;;;;4.88;87.67;101652.50;4955172;28;20433;-79
2022/01/25 06:54:43;;;;;;;41.28;19.05;;;;;;;4.88;87.93;101661.78;4938367;29;20043;-79
2022/01/25 06:57:09;;;;;;;39.05;19.75;;;;;;;4.88;87.44;101673.09;4939984;29;20023;-82
2022/01/25 06:59:35;;;;;;;42.00;20.40;;;;;;;4.90;87.28;101664.19;4939400;29;20074;-84
2022/01/25 07:02:00;;;;;;;36.88;18.77;;;;;;;4.92;87.84;101661.78;4955337;29;20039;-86
2022/01/25 07:04:25;;;;;;;34.25;16.13;;;;;;;4.91;87.58;101660.16;4958424;28;20056;-86
2022/01/25 07:06:51;;;;;;;39.13;16.58;;;;;;;4.88;87.95;101649.69;4964351;29;20451;-87
2022/01/25 07:09:24;;;;;;;32.42;15.65;;;;;;;4.83;87.14;101636.81;4965535;28;20059;-89
2022/01/25 07:11:51;;;;;;;33.05;15.27;;;;;;;4.98;87.77;101648.84;4972833;28;20050;-88
2022/01/25 07:14:17;;;;;;;31.75;15.57;;;;;;;4.97;87.81;101659.34;4961797;28;20531;-85
2022/01/25 07:16:43;;;;;;;34.92;16.13;;;;;;;4.93;87.17;101647.25;4958853;28;20062;-86
2022/01/25 07:19:09;;;;;;;32.67;16.88;;;;;;;5.02;87.86;101663.75;4941765;29;20076;-83
2022/01/25 07:21:34;;;;;;;34.67;18.45;;;;;;;5.03;87.59;101656.91;4957980;28;20035;-81
2022/01/25 07:23:59;;;;;;;41.38;19.27;;;;;;;5.00;88.24;101650.03;4942074;29;20066;-81
2022/01/25 07:26:26;;;;;;;36.40;18.58;;;;;;;5.01;87.46;101650.84;4957690;28;20034;-78
2022/01/25 07:28:51;;;;;;;36.13;17.00;;;;;;;5.03;87.59;101651.25;4972513;28;20031;-77
2022/01/25 07:31:18;;;;;;;43.45;17.80;;;;;;;5.00;87.95;101638.75;4956500;29;20031;-80
2022/01/25 07:33:45;;;;;;;36.88;17.85;;;;;;;5.03;88.04;101639.97;4957239;28;20027;-80
2022/01/25 07:36:10;;;;;;;31.88;16.75;;;;;;;5.02;87.53;101641.97;4963516;29;20038;-81
2022/01/25 07:38:37;;;;;;;25.85;13.43;;;;;;;5.02;87.71;101632.72;4964557;29;20027;-80
2022/01/25 07:41:02;;;;;;;26.77;13.65;;;;;;;5.06;86.21;101631.47;4965001;29;20118;-80
2022/01/25 07:43:29;;;;;;;29.73;13.65;;;;;;;5.10;86.56;101637.09;4972526;29;20377;-87
2022/01/25 07:45:56;;;;;;;26.17;13.35;;;;;;;5.12;86.38;101640.34;4960254;29;20622;-80
2022/01/25 07:48:22;;;;;;;28.00;15.15;;;;;;;5.14;86.30;101640.72;4962624;28;20035;-79
2022/01/25 07:50:48;;;;;;;30.65;14.00;;;;;;;5.20;86.41;101647.56;4956627;29;20079;-78
2022/01/25 07:53:13;;;;;;;33.78;14.45;;;;;;;5.25;85.63;101638.66;4947927;29;20035;-86
2022/01/25 07:55:39;;;;;;;23.33;12.93;;;;;;;5.22;86.00;101636.66;4965853;29;20065;-85
2022/01/25 07:58:05;;;;;;;30.70;13.55;;;;;;;5.33;85.54;101642.28;4949967;29;20049;-83
2022/01/25 08:00:30;;;;;;;22.67;12.35;;;;;;;5.36;85.53;101636.59;4969539;29;20058;-84
2022/01/25 08:02:56;;;;;;;23.55;11.50;;;;;;;5.37;85.26;101631.75;4983676;28;20548;-86
2022/01/25 08:05:26;;;;;;;24.27;11.73;;;;;;;5.38;83.92;101630.56;4968144;29;20127;-80
2022/01/25 08:07:53;;;;;;;25.63;12.63;;;;;;;5.43;83.69;101639.38;4965809;29;20027;-84
2022/01/25 08:10:19;;;;;;;23.77;13.23;;;;;;;5.39;84.25;101637.78;4968586;29;20031;-84
2022/01/25 08:12:47;;;;;;;29.52;13.48;;;;;;;5.42;84.47;101634.16;4965840;29;20397;-84
2022/01/25 08:15:12;;;;;;;33.47;14.55;;;;;;;5.52;84.26;101639.75;4962379;29;20031;-83
2022/01/25 08:17:38;;;;;;;28.67;14.30;;;;;;;5.44;83.96;101620.41;4928135;29;20055;-80
2022/01/25 08:20:04;;;;;;;25.60;13.90;;;;;;;5.58;83.64;101637.28;4959712;28;20028;-83
2022/01/25 08:22:33;;;;;;;26.17;14.35;;;;;;;5.57;84.02;101633.69;4957480;29;20113;-83
2022/01/25 08:24:59;;;;;;;24.10;12.15;;;;;;;5.70;83.47;101650.16;4957071;28;20063;-86
2022/01/25 08:27:24;;;;;;;21.70;11.85;;;;;;;5.78;82.23;101665.84;4924804;29;20042;-80
2022/01/25 08:29:51;;;;;;;30.08;14.73;;;;;;;5.75;81.26;101670.31;4940223;29;20027;-83
2022/01/25 08:32:17;;;;;;;37.20;15.55;;;;;;;5.63;81.65;101662.28;4957262;29;20178;-81
2022/01/25 08:34:42;;;;;;;36.90;13.23;;;;;;;5.59;80.95;101673.63;4959750;29;20063;-81
2022/01/25 08:37:08;;;;;;;16.70;9.07;;;;;;;5.54;79.75;101676.88;4944832;29;20370;-77
2022/01/25 08:39:33;;;;;;;21.08;9.45;;;;;;;5.42;79.25;101668.88;4947287;29;20049;-80
2022/01/25 08:41:59;;;;;;;20.25;8.85;;;;;;;5.28;79.77;101659.66;4965875;28;20492;-84
2022/01/25 08:44:25;;;;;;;16.00;8.30;;;;;;;5.28;79.69;101674.56;4968045;29;20030;-81
2022/01/25 08:46:51;;;;;;;15.45;7.93;;;;;;;5.29;80.47;101681.00;4968962;29;20087;-80
2022/01/25 08:49:16;;;;;;;9.65;6.38;;;;;;;5.35;78.99;101676.56;4971558;29;20055;-82
2022/01/25 08:51:42;;;;;;;10.80;6.82;;;;;;;5.38;78.10;101679.34;4971393;28;20033;-84
2022/01/25 08:54:08;;;;;;;11.80;7.68;;;;;;;5.38;78.31;101678.56;4966165;28;20043;-84
2022/01/25 08:56:33;;;;;;;15.70;9.15;;;;;;;5.36;78.30;101672.53;4968255;28;20500;-83
2022/01/25 08:58:59;;;;;;;11.13;7.22;;;;;;;5.39;78.23;101680.97;4963314;28;20119;-80
2022/01/25 09:01:25;;;;;;;12.07;7.38;;;;;;;5.36;78.35;101689.47;4961403;28;20038;-83
2022/01/25 09:03:51;;;;;;;13.85;7.85;;;;;;;5.34;78.11;101678.56;4967715;28;20048;-85
2022/01/25 09:06:17;;;;;;;11.63;6.45;;;;;;;5.37;78.66;101682.59;4969187;29;20054;-83
2022/01/25 09:08:42;;;;;;;13.93;6.95;;;;;;;5.34;77.89;101687.03;4961642;28;20062;-78
2022/01/25 09:11:08;;;;;;;19.73;8.18;;;;;;;5.28;78.33;101691.50;4956572;29;20540;-79
2022/01/25 09:13:34;;;;;;;12.57;7.55;;;;;;;5.26;78.36;101684.66;4958098;29;20059;-79
2022/01/25 09:16:01;;;;;;;11.68;6.68;;;;;;;5.31;77.81;101687.88;4956216;28;20420;-81
2022/01/25 09:18:27;;;;;;;10.73;6.57;;;;;;;5.37;77.11;101686.25;4938097;29;20031;-81
2022/01/25 09:20:53;;;;;;;10.07;6.70;;;;;;;5.34;77.21;101687.03;4937616;29;20050;-81
2022/01/25 09:23:19;;;;;;;13.20;8.10;;;;;;;5.23;77.71;101674.97;4954881;28;20031;-82
2022/01/25 09:25:47;;;;;;;15.07;7.57;;;;;;;5.42;77.75;101690.66;4962528;28;20043;-78
2022/01/25 09:28:13;;;;;;;11.65;6.55;;;;;;;5.47;77.60;101693.88;4954186;28;20460;-79
2022/01/25 09:30:38;;;;;;;13.57;7.68;;;;;;;5.62;76.94;101680.47;4955448;28;20035;-79
2022/01/25 09:33:04;;;;;;;10.05;6.28;;;;;;;5.75;76.40;101686.47;4954671;29;20417;-88
2022/01/25 09:35:29;;;;;;;12.38;7.00;;;;;;;5.78;76.22;101686.44;4957540;28;20027;-92
2022/01/25 09:37:55;;;;;;;15.35;8.00;;;;;;;5.97;76.60;101688.78;4975661;28;20031;-86
2022/01/25 09:40:21;;;;;;;12.05;7.07;;;;;;;6.13;75.37;101688.25;4975242;28;20097;-85
2022/01/25 09:42:51;;;;;;;12.55;6.97;;;;;;;6.23;74.78;101683.75;4944894;29;20067;-87
2022/01/25 09:45:17;;;;;;;13.63;7.50;;;;;;;6.36;74.49;101682.06;4945694;29;20031;-90
2022/01/25 09:47:43;;;;;;;19.05;9.00;;;;;;;6.47;74.72;101668.59;4958421;29;20031;-81
2022/01/25 09:50:09;;;;;;;14.13;7.93;;;;;;;6.70;73.10;101677.31;4974727;28;20059;-82
2022/01/25 09:52:35;;;;;;;16.23;7.22;;;;;;;6.76;73.43;101683.31;4959337;28;20397;-77
2022/01/25 09:55:01;;;;;;;15.23;7.82;;;;;;;6.80;72.58;101673.56;4963110;28;20050;-84
2022/01/25 09:57:27;;;;;;;12.38;7.38;;;;;;;6.83;71.97;101678.38;4960863;28;20031;-85
2022/01/25 09:59:53;;;;;;;13.88;7.32;;;;;;;6.87;72.72;101675.50;4942638;29;20042;-86
2022/01/25 10:02:43;;;;;;;15.70;7.65;;;;;;;6.98;71.67;101673.38;4973817;28;20031;-77
2022/01/25 10:05:16;;;;;;;15.50;7.55;;;;;;;7.08;71.57;101672.44;4958440;28;20035;-81
2022/01/25 10:07:42;;;;;;;15.05;8.73;;;;;;;7.22;71.53;101660.97;4959634;28;20020;-83
2022/01/25 10:10:08;;;;;;;12.40;7.72;;;;;;;7.41;71.66;101655.88;4957652;29;20037;-83
2022/01/25 10:12:33;;;;;;;12.82;6.95;;;;;;;7.66;70.75;101650.66;4958900;29;20055;-81
2022/01/25 10:15:01;;;;;;;19.80;8.65;;;;;;;7.85;70.68;101658.50;4959662;28;20361;-77
2022/01/25 10:17:31;;;;;;;15.02;8.73;;;;;;;7.99;69.76;101655.44;4958455;28;20054;-77
2022/01/25 10:19:57;;;;;;;14.35;7.57;;;;;;;8.07;69.61;101641.97;4958076;28;20027;-78
2022/01/25 10:22:23;;;;;;;19.75;10.25;;;;;;;8.24;69.38;101644.50;4972972;28;20043;-83
2022/01/25 10:24:49;;;;;;;23.23;8.90;;;;;;;8.33;68.76;101643.22;4957006;28;20031;-85
2022/01/25 10:27:14;;;;;;;16.65;9.35;;;;;;;8.41;68.63;101645.50;4973241;28;20049;-80
2022/01/25 10:29:41;;;;;;;20.63;8.93;;;;;;;8.59;69.02;101639.50;4956953;29;20078;-81
2022/01/25 10:32:14;;;;;;;16.50;9.05;;;;;;;8.57;67.82;101628.59;4972883;28;20039;-82
2022/01/25 10:34:41;;;;;;;16.27;8.13;;;;;;;8.60;65.99;101630.56;4961448;28;20023;-77
2022/01/25 10:37:18;;;;;;;13.85;7.95;;;;;;;8.55;67.74;101625.38;4972834;28;20035;-80
2022/01/25 10:39:46;;;;;;;15.32;8.25;;;;;;;8.54;66.70;101620.13;4957320;29;20027;-87
2022/01/25 10:42:20;;;;;;;13.55;7.70;;;;;;;8.65;66.36;101615.06;4957031;29;20027;-87
2022/01/25 10:45:02;;;;;;;14.10;8.18;;;;;;;8.77;65.77;101605.09;4942825;29;20436;-81
2022/01/25 10:47:48;;;;;;;13.05;8.00;;;;;;;8.79;65.89;101599.78;4941238;29;20388;-88
2022/01/25 10:50:24;;;;;;;17.20;8.20;;;;;;;8.70;65.47;101600.34;4957265;29;20048;-81
2022/01/25 10:53:06;;;;;;;15.07;8.98;;;;;;;8.61;65.76;101598.09;4956997;29;20528;-80
2022/01/25 10:55:41;;;;;;;17.90;9.32;;;;;;;8.63;65.69;101606.97;4957995;28;20039;-82
2022/01/25 10:58:08;;;;;;;15.82;8.82;;;;;;;8.64;66.30;101596.41;4972380;28;20051;-86
2022/01/25 11:00:38;;;;;;;19.63;9.25;;;;;;;8.61;65.61;101603.78;4973285;28;20392;-87
2022/01/25 11:03:05;;;;;;;24.00;8.95;;;;;;;8.39;65.59;101601.72;4972232;28;20034;-79
2022/01/25 11:05:33;;;;;;;16.42;8.15;;;;;;;8.18;65.95;101592.34;4954521;28;20035;-79
2022/01/25 11:08:14;;;;;;;14.57;8.63;;;;;;;8.24;66.18;101592.63;4954198;29;20552;-79
2022/01/25 11:10:53;;;;;;;17.60;8.65;;;;;;;8.32;65.12;101588.47;4953971;29;20122;-78
2022/01/25 11:13:35;;;;;;;14.48;7.80;;;;;;;8.31;66.28;101588.91;4954998;29;20034;-80
2022/01/25 11:16:12;;;;;;;18.05;9.60;;;;;;;8.34;65.93;101577.47;4968596;28;20031;-77
2022/01/25 11:18:41;;;;;;;11.38;6.70;;;;;;;8.36;66.34;101580.69;4955633;29;20390;-80
2022/01/25 11:21:09;;;;;;;11.32;7.47;;;;;;;8.39;66.10;101584.69;4957818;28;20093;-77
2022/01/25 11:23:36;;;;;;;12.43;6.80;;;;;;;8.41;66.04;101574.53;4972003;28;20035;-78
2022/01/25 11:26:05;;;;;;;12.57;6.72;;;;;;;8.44;65.72;101584.19;4955564;29;20027;-80
2022/01/25 11:28:32;;;;;;;19.45;8.27;;;;;;;8.43;65.84;101586.25;4955685;29;20044;-78
2022/01/25 11:31:01;;;;;;;17.38;7.85;;;;;;;8.47;66.14;101589.03;4956430;29;20054;-79
2022/01/25 11:33:29;;;;;;;16.02;7.97;;;;;;;8.48;65.51;101582.94;4957700;29;20027;-77
2022/01/25 11:35:54;;;;;;;23.48;9.43;;;;;;;8.45;65.14;101582.97;4956160;29;20031;-77
2022/01/25 11:38:31;;;;;;;15.07;8.55;;;;;;;8.56;64.87;101584.38;4955775;29;20362;-76
2022/01/25 11:40:57;;;;;;;14.93;6.63;;;;;;;8.52;65.22;101575.13;4955576;28;20031;-79
2022/01/25 11:43:22;;;;;;;13.23;6.50;;;;;;;8.36;64.29;101575.03;4971681;28;20094;-77
2022/01/25 11:45:49;;;;;;;14.75;7.30;;;;;;;8.39;64.97;101584.69;4972123;28;20074;-79
2022/01/25 11:48:22;;;;;;;15.48;7.75;;;;;;;8.42;65.20;101581.81;4973446;28;20035;-76
2022/01/25 11:50:47;;;;;;;19.67;7.57;;;;;;;8.49;64.49;101576.00;4955315;29;20051;-80
2022/01/25 11:53:16;;;;;;;21.90;9.25;;;;;;;8.50;64.97;101576.78;4961583;28;20108;-78
2022/01/25 11:55:46;;;;;;;25.65;8.10;;;;;;;8.44;64.10;101562.28;4971067;28;20409;-80
2022/01/25 11:58:26;;;;;;;20.80;8.60;;;;;;;8.41;64.43;101579.41;4956320;28;20114;-76
2022/01/25 12:00:57;;;;;;;16.88;7.93;;;;;;;8.40;64.49;101563.59;4957598;29;20077;-79
2022/01/25 12:03:23;;;;;;;15.80;7.03;;;;;;;8.38;65.03;101568.91;4955759;29;20109;-79
2022/01/25 12:06:10;;;;;;;22.27;8.60;;;;;;;8.33;64.43;101563.75;4957120;29;20034;-79
2022/01/25 12:11:37;;;;;;;21.02;7.20;;;;;;;8.43;63.12;101554.22;4957689;28;20031;-81
2022/01/25 12:14:24;;;;;;;16.23;7.45;;;;;;;8.49;63.61;101564.63;4958969;28;20381;-78
2022/01/25 12:17:09;;;;;;;11.75;6.18;;;;;;;8.51;63.36;101567.03;4956930;28;20143;-76
2022/01/25 12:19:50;;;;;;;14.98;6.82;;;;;;;8.53;63.69;101568.22;4955793;28;20050;-79
2022/01/25 12:25:16;;;;;;;10.18;6.30;;;;;;;8.42;64.11;101561.13;4954586;28;20484;-79
2022/01/25 12:27:52;;;;;;;14.80;7.00;;;;;;;8.21;64.08;101556.59;4975010;28;20110;-81
2022/01/25 12:30:39;;;;;;;11.70;6.82;;;;;;;8.07;63.90;101557.66;4956661;28;20047;-82
2022/01/25 12:33:25;;;;;;;11.57;6.15;;;;;;;7.73;64.04;101552.13;4950316;28;20054;-80
2022/01/25 12:36:03;;;;;;;23.83;7.20;;;;;;;7.60;64.38;101555.97;4968238;29;20114;-80
2022/01/25 12:38:31;;;;;;;15.88;6.43;;;;;;;7.49;65.24;101550.47;4974106;28;20026;-83
2022/01/25 12:41:00;;;;;;;27.88;11.93;;;;;;;7.43;65.73;101546.53;4973853;28;20035;-85
2022/01/25 12:43:38;;;;;;;16.25;8.50;;;;;;;7.36;65.46;101550.25;4977530;28;20039;-83
2022/01/25 12:46:19;;;;;;;15.15;6.82;;;;;;;7.16;66.47;101551.34;4946819;29;20035;-80
2022/01/25 12:48:50;;;;;;;13.80;8.00;;;;;;;6.99;66.70;101536.19;4954289;28;20513;-77
2022/01/25 12:51:37;;;;;;;13.52;6.60;;;;;;;6.88;67.76;101536.34;4953147;28;20031;-81
2022/01/25 12:54:07;;;;;;;21.65;7.78;;;;;;;6.73;67.54;101528.44;4966282;28;20094;-84
2022/01/25 12:56:39;;;;;;;19.30;6.93;;;;;;;6.86;68.27;101535.94;4958554;28;20429;-77
2022/01/25 12:59:11;;;;;;;13.85;6.60;;;;;;;6.88;67.67;101522.16;4950407;28;20050;-81
2022/01/25 13:01:38;;;;;;;12.27;6.78;;;;;;;7.02;68.00;101531.69;4954051;29;20551;-82
2022/01/25 13:04:05;;;;;;;17.83;8.00;;;;;;;7.06;68.37;101529.63;4953367;29;20031;-79
2022/01/25 13:06:35;;;;;;;19.23;7.85;;;;;;;7.23;68.23;101534.25;4969273;28;20019;-80
2022/01/25 13:09:10;;;;;;;13.43;7.13;;;;;;;7.33;67.68;101541.81;4938277;29;20035;-81
2022/01/25 13:12:28;;;;;;;16.40;7.70;;;;;;;7.38;67.93;101535.66;4952829;28;20043;-79
2022/01/25 13:14:45;;;;;;;16.70;7.10;;;;;;;7.50;67.86;101537.91;4953488;28;20039;-78
2022/01/25 13:17:30;;;;;;;16.77;8.38;;;;;;;7.64;67.96;101537.69;4955216;28;20459;-80
2022/01/25 13:20:00;;;;;;;17.25;7.18;;;;;;;7.74;67.68;101538.75;4956050;28;20050;-82
2022/01/25 13:22:31;;;;;;;12.45;6.72;;;;;;;7.76;66.82;101527.78;4942358;28;20047;-83
2022/01/25 13:25:44;;;;;;;10.35;4.82;;;;;;;7.68;65.99;101532.78;4967122;28;20045;-81
2022/01/25 13:28:56;;;;;;;12.85;5.80;;;;;;;7.60;67.18;101525.59;4978704;28;20026;-83
2022/01/25 13:31:02;;;;;;;12.77;6.10;;;;;;;7.62;67.17;101531.66;4971981;28;20425;-79
2022/01/25 13:33:28;;;;;;;13.60;7.13;;;;;;;7.71;67.50;101531.91;4936976;28;20182;-77
2022/01/25 13:35:56;;;;;;;12.07;5.90;;;;;;;7.68;66.26;101532.78;4956252;28;20023;-81
2022/01/25 13:38:26;;;;;;;19.88;10.60;;;;;;;7.69;66.87;101537.22;4957974;28;20066;-85
2022/01/25 13:46:14;;;;;;;10.23;5.72;;;;;;;7.46;67.36;101516.50;4954589;28;20046;-81
2022/01/25 13:48:41;;;;;;;10.15;4.82;;;;;;;7.53;67.11;101522.88;4954784;28;20042;-81